createdAt,value
2019-05-30T00:00:03.689Z,11.10
2019-05-30T00:02:19.118Z,11.00
2019-05-30T00:04:47.862Z,11.00
2019-05-30T00:07:16.597Z,11.00
2019-05-30T00:09:45.477Z,11.00
2019-05-30T00:12:14.215Z,11.00
2019-05-30T00:14:42.963Z,11.00
2019-05-30T00:17:11.754Z,11.00
2019-05-30T00:19:40.502Z,11.00
2019-05-30T00:22:09.311Z,10.90
2019-05-30T00:24:38.047Z,10.90
2019-05-30T00:27:06.813Z,10.90
2019-05-30T00:29:35.577Z,11.00
2019-05-30T00:32:04.991Z,11.00
2019-05-30T00:34:33.969Z,10.90
2019-05-30T00:37:03.941Z,10.90
2019-05-30T00:39:32.999Z,10.90
2019-05-30T00:42:02.101Z,10.90
2019-05-30T00:44:30.966Z,10.90
2019-05-30T00:47:00.603Z,10.90
2019-05-30T00:49:29.585Z,10.90
2019-05-30T00:51:58.432Z,10.90
2019-05-30T00:54:27.156Z,10.90
2019-05-30T00:56:56.569Z,11.00
2019-05-30T00:59:25.424Z,11.00
2019-05-30T01:01:54.161Z,10.90
2019-05-30T01:04:22.914Z,10.90
2019-05-30T01:06:51.679Z,10.90
2019-05-30T01:09:20.464Z,10.90
2019-05-30T01:11:49.323Z,10.90
2019-05-30T01:14:18.063Z,11.00
2019-05-30T01:16:46.859Z,11.00
2019-05-30T01:19:15.628Z,10.90
2019-05-30T01:21:44.569Z,11.00
2019-05-30T01:24:13.372Z,11.00
2019-05-30T01:26:42.133Z,10.90
2019-05-30T01:29:10.855Z,10.90
2019-05-30T01:31:39.727Z,10.90
2019-05-30T01:34:08.527Z,10.90
2019-05-30T01:36:37.255Z,10.90
2019-05-30T01:39:08.146Z,10.80
2019-05-30T01:41:37.131Z,10.90
2019-05-30T01:44:06.137Z,10.90
2019-05-30T01:46:34.903Z,10.90
2019-05-30T01:49:04.365Z,10.90
2019-05-30T01:51:33.215Z,10.90
2019-05-30T01:54:02.569Z,10.90
2019-05-30T01:56:32.487Z,11.00
2019-05-30T01:59:01.274Z,11.00
2019-05-30T02:01:31.213Z,11.00
2019-05-30T02:04:01.041Z,11.00
2019-05-30T02:06:29.936Z,11.00
2019-05-30T02:08:59.121Z,11.00
2019-05-30T02:11:28.203Z,11.00
2019-05-30T02:13:56.939Z,10.90
2019-05-30T02:16:25.663Z,10.90
2019-05-30T02:18:54.414Z,10.90
2019-05-30T02:21:23.157Z,10.90
2019-05-30T02:23:51.874Z,10.90
2019-05-30T02:26:20.639Z,10.90
2019-05-30T02:28:49.429Z,10.80
2019-05-30T02:31:37.309Z,10.90
2019-05-30T02:33:48.579Z,10.90
2019-05-30T02:36:17.336Z,10.90
2019-05-30T02:38:46.042Z,10.90
2019-05-30T02:41:14.808Z,10.90
2019-05-30T02:43:43.643Z,10.90
2019-05-30T02:46:12.684Z,10.90
2019-05-30T02:48:58.372Z,10.90
2019-05-30T02:51:12.635Z,10.80
2019-05-30T02:53:41.748Z,10.90
2019-05-30T02:56:12.464Z,10.90
2019-05-30T02:58:40.923Z,10.90
2019-05-30T03:01:13.784Z,10.90
2019-05-30T03:03:41.688Z,10.90
2019-05-30T03:06:11.807Z,10.90
2019-05-30T03:08:40.805Z,10.90
2019-05-30T03:11:13.528Z,10.80
2019-05-30T03:13:40.633Z,10.80
2019-05-30T03:16:11.302Z,10.80
2019-05-30T03:18:39.806Z,10.90
2019-05-30T03:21:10.567Z,10.80
2019-05-30T03:23:38.898Z,10.70
2019-05-30T03:26:10.009Z,10.70
2019-05-30T03:28:38.149Z,10.80
2019-05-30T03:31:14.692Z,10.70
2019-05-30T03:33:42.131Z,10.60
2019-05-30T03:36:19.966Z,10.60
2019-05-30T03:38:39.937Z,10.50
2019-05-30T03:41:10.822Z,10.50
2019-05-30T03:43:39.109Z,10.50
2019-05-30T03:46:12.727Z,10.50
2019-05-30T03:48:44.165Z,10.50
2019-05-30T03:51:15.297Z,10.40
2019-05-30T03:53:44.227Z,10.40
2019-05-30T03:56:16.164Z,10.40
2019-05-30T03:58:53.912Z,10.50
2019-05-30T04:01:40.831Z,10.40
2019-05-30T04:04:29.344Z,10.50
2019-05-30T04:07:03.738Z,10.50
2019-05-30T04:09:34.637Z,10.50
2019-05-30T04:12:07.900Z,10.50
2019-05-30T04:14:39.648Z,10.50
2019-05-30T04:17:10.634Z,10.50
2019-05-30T04:19:38.864Z,10.50
2019-05-30T04:22:09.206Z,10.60
2019-05-30T04:24:38.635Z,10.60
2019-05-30T04:27:08.021Z,10.60
2019-05-30T04:29:37.846Z,10.60
2019-05-30T04:32:08.272Z,10.60
2019-05-30T04:34:36.970Z,10.60
2019-05-30T04:37:05.757Z,10.60
2019-05-30T04:39:34.483Z,10.50
2019-05-30T04:42:03.218Z,10.50
2019-05-30T04:44:31.976Z,10.50
2019-05-30T04:47:01.805Z,10.50
2019-05-30T04:49:30.537Z,10.50
2019-05-30T04:52:01.223Z,10.50
2019-05-30T04:54:31.325Z,10.50
2019-05-30T04:57:00.061Z,10.50
2019-05-30T04:59:29.415Z,10.50
2019-05-30T05:01:58.177Z,10.60
2019-05-30T05:04:26.926Z,10.60
2019-05-30T05:06:55.647Z,10.70
2019-05-30T05:09:24.490Z,10.70
2019-05-30T05:11:53.260Z,10.50
2019-05-30T05:14:22.767Z,10.60
2019-05-30T05:16:51.742Z,10.60
2019-05-30T05:19:22.204Z,10.70
2019-05-30T05:21:50.882Z,10.70
2019-05-30T05:24:19.611Z,10.60
2019-05-30T05:26:48.474Z,10.60
2019-05-30T05:29:17.912Z,10.60
2019-05-30T05:31:46.754Z,10.70
2019-05-30T05:34:16.563Z,10.70
2019-05-30T05:36:47.448Z,10.70
2019-05-30T05:39:16.177Z,10.80
2019-05-30T05:41:44.982Z,10.80
2019-05-30T05:44:13.746Z,10.80
2019-05-30T05:46:42.481Z,10.80
2019-05-30T05:49:11.243Z,10.80
2019-05-30T05:51:40.007Z,10.90
2019-05-30T05:54:08.768Z,10.90
2019-05-30T05:56:37.487Z,10.80
2019-05-30T05:59:06.259Z,10.90
2019-05-30T06:01:35.064Z,10.90
2019-05-30T06:04:12.560Z,10.90
2019-05-30T06:06:34.213Z,10.80
2019-05-30T06:09:04.029Z,10.80
2019-05-30T06:11:32.768Z,10.80
2019-05-30T06:14:01.589Z,10.90
2019-05-30T06:16:30.328Z,10.90
2019-05-30T06:18:59.049Z,10.90
2019-05-30T06:21:27.805Z,10.90
2019-05-30T06:23:56.529Z,10.90
2019-05-30T06:26:25.912Z,10.90
2019-05-30T06:28:54.727Z,10.80
2019-05-30T06:31:24.480Z,10.90
2019-05-30T06:33:53.332Z,10.90
2019-05-30T06:36:23.105Z,10.90
2019-05-30T06:38:51.963Z,10.90
2019-05-30T06:41:21.487Z,10.90
2019-05-30T06:43:58.068Z,11.00
2019-05-30T06:46:26.854Z,11.10
2019-05-30T06:48:55.656Z,11.00
2019-05-30T06:51:24.841Z,11.00
2019-05-30T06:53:53.687Z,11.10
2019-05-30T06:56:23.239Z,11.10
2019-05-30T06:58:52.060Z,11.10
2019-05-30T07:01:22.030Z,11.00
2019-05-30T07:03:51.176Z,11.00
2019-05-30T07:06:20.345Z,11.00
2019-05-30T07:08:49.380Z,11.10
2019-05-30T07:11:18.105Z,11.00
2019-05-30T07:13:48.551Z,10.90
2019-05-30T07:16:17.295Z,10.90
2019-05-30T07:18:47.968Z,10.90
2019-05-30T07:21:16.421Z,10.90
2019-05-30T07:23:45.178Z,10.90
2019-05-30T07:26:13.902Z,10.90
2019-05-30T07:28:42.647Z,10.90
2019-05-30T07:31:11.450Z,10.90
2019-05-30T07:33:40.314Z,11.00
2019-05-30T07:36:09.072Z,10.90
2019-05-30T07:38:37.826Z,10.90
2019-05-30T07:41:06.678Z,11.00
2019-05-30T07:43:35.432Z,11.00
2019-05-30T07:46:04.221Z,11.00
2019-05-30T07:48:34.016Z,11.00
2019-05-30T07:51:03.171Z,11.00
2019-05-30T07:53:32.794Z,11.00
2019-05-30T07:56:01.690Z,11.00
2019-05-30T07:58:31.133Z,11.00
2019-05-30T08:01:00.556Z,10.90
2019-05-30T08:03:30.400Z,11.00
2019-05-30T08:05:59.335Z,11.00
2019-05-30T08:08:28.161Z,11.10
2019-05-30T08:11:08.917Z,11.00
2019-05-30T08:13:27.467Z,11.10
2019-05-30T08:15:56.243Z,11.10
2019-05-30T08:18:24.999Z,11.20
2019-05-30T08:20:54.727Z,11.20
2019-05-30T08:23:23.472Z,11.30
2019-05-30T08:25:52.258Z,11.20
2019-05-30T08:28:21.067Z,11.20
2019-05-30T08:30:50.791Z,11.20
2019-05-30T08:33:21.659Z,11.10
2019-05-30T08:35:50.495Z,11.30
2019-05-30T08:38:19.339Z,11.20
2019-05-30T08:40:48.105Z,11.30
2019-05-30T08:43:16.834Z,11.30
2019-05-30T08:45:45.637Z,11.30
2019-05-30T08:48:14.405Z,11.30
2019-05-30T08:50:44.687Z,11.40
2019-05-30T08:53:13.855Z,11.50
2019-05-30T08:55:43.133Z,11.50
2019-05-30T08:58:11.985Z,11.60
2019-05-30T09:00:40.754Z,11.70
2019-05-30T09:03:09.511Z,11.70
2019-05-30T09:05:38.743Z,11.70
2019-05-30T09:08:08.649Z,11.70
2019-05-30T09:10:37.875Z,11.70
2019-05-30T09:13:07.996Z,11.70
2019-05-30T09:15:37.930Z,11.70
2019-05-30T09:18:07.155Z,11.70
2019-05-30T09:20:37.927Z,11.70
2019-05-30T09:23:06.264Z,11.80
2019-05-30T09:25:35.013Z,11.70
2019-05-30T09:28:03.902Z,11.70
2019-05-30T09:30:32.614Z,11.80
2019-05-30T09:33:01.473Z,11.80
2019-05-30T09:35:30.207Z,11.90
2019-05-30T09:37:58.944Z,11.90
2019-05-30T09:40:28.304Z,11.90
2019-05-30T09:42:57.152Z,11.80
2019-05-30T09:45:28.147Z,11.90
2019-05-30T09:47:58.754Z,11.90
2019-05-30T09:50:27.540Z,12.00
2019-05-30T09:52:56.283Z,11.80
2019-05-30T09:55:25.937Z,11.70
2019-05-30T09:57:54.658Z,11.60
2019-05-30T10:00:26.137Z,11.70
2019-05-30T10:02:54.904Z,11.80
2019-05-30T10:05:24.969Z,11.70
2019-05-30T10:07:53.903Z,11.70
2019-05-30T10:10:23.773Z,11.70
2019-05-30T10:12:52.772Z,11.70
2019-05-30T10:15:21.891Z,11.80
2019-05-30T10:17:52.779Z,11.90
2019-05-30T10:20:21.570Z,11.80
2019-05-30T10:22:51.826Z,11.80
2019-05-30T10:25:20.901Z,11.90
2019-05-30T10:27:51.061Z,11.80
2019-05-30T10:30:20.423Z,11.80
2019-05-30T10:32:50.278Z,11.80
2019-05-30T10:35:20.339Z,11.80
2019-05-30T10:37:50.756Z,11.80
2019-05-30T10:40:20.061Z,11.80
2019-05-30T10:42:51.065Z,11.80
2019-05-30T10:45:21.880Z,11.90
2019-05-30T10:47:51.369Z,11.90
2019-05-30T10:50:23.462Z,11.90
2019-05-30T10:52:53.467Z,11.90
2019-05-30T10:55:24.720Z,11.70
2019-05-30T10:57:57.281Z,11.60
2019-05-30T11:00:29.693Z,11.60
2019-05-30T11:02:58.414Z,11.60
2019-05-30T11:05:27.157Z,11.60
2019-05-30T11:08:03.962Z,11.50
2019-05-30T11:10:43.126Z,11.50
2019-05-30T11:13:15.941Z,11.60
2019-05-30T11:15:45.183Z,11.60
2019-05-30T11:18:14.007Z,11.70
2019-05-30T11:20:42.993Z,11.80
2019-05-30T11:23:11.711Z,11.70
2019-05-30T11:25:40.448Z,11.80
2019-05-30T11:28:09.209Z,11.80
2019-05-30T11:30:37.950Z,11.80
2019-05-30T11:33:06.983Z,11.80
2019-05-30T11:35:36.323Z,11.90
2019-05-30T11:38:05.666Z,11.80
2019-05-30T11:40:34.385Z,11.80
2019-05-30T11:43:03.253Z,11.70
2019-05-30T11:45:32.170Z,11.60
2019-05-30T11:48:00.954Z,11.60
2019-05-30T11:50:30.318Z,11.50
2019-05-30T11:53:00.191Z,11.50
2019-05-30T11:55:29.166Z,11.40
2019-05-30T11:57:58.426Z,11.30
2019-05-30T12:00:28.077Z,11.40
2019-05-30T12:02:56.810Z,11.30
2019-05-30T12:05:25.773Z,11.20
2019-05-30T12:07:54.843Z,11.30
2019-05-30T12:10:24.233Z,11.30
2019-05-30T12:12:53.310Z,11.40
2019-05-30T12:15:22.337Z,11.30
2019-05-30T12:17:51.259Z,11.30
2019-05-30T12:20:20.443Z,11.30
2019-05-30T12:22:49.269Z,11.30
2019-05-30T12:25:18.049Z,11.30
2019-05-30T12:27:46.826Z,11.30
2019-05-30T12:30:17.733Z,11.40
2019-05-30T12:32:46.486Z,11.50
2019-05-30T12:35:16.265Z,11.50
2019-05-30T12:37:54.807Z,11.40
2019-05-30T12:40:19.644Z,11.50
2019-05-30T12:42:48.430Z,11.50
2019-05-30T12:45:18.008Z,11.60
2019-05-30T12:47:46.733Z,11.60
2019-05-30T12:50:16.816Z,11.50
2019-05-30T12:52:45.854Z,11.40
2019-05-30T12:55:15.333Z,11.40
2019-05-30T12:57:44.097Z,11.40
2019-05-30T13:00:18.935Z,11.30
2019-05-30T13:02:46.209Z,11.50
2019-05-30T13:05:15.366Z,11.40
2019-05-30T13:07:44.180Z,11.30
2019-05-30T13:10:13.141Z,11.20
2019-05-30T13:12:41.887Z,11.10
2019-05-30T13:15:11.217Z,11.20
2019-05-30T13:17:40.154Z,11.10
2019-05-30T13:20:10.323Z,11.10
2019-05-30T13:22:39.050Z,11.20
2019-05-30T13:25:09.271Z,11.30
2019-05-30T13:27:38.048Z,11.40
2019-05-30T13:30:08.641Z,11.20
2019-05-30T13:32:37.383Z,11.20
2019-05-30T13:35:12.068Z,11.20
2019-05-30T13:37:40.804Z,11.30
2019-05-30T13:40:24.340Z,11.30
2019-05-30T13:42:45.057Z,11.30
2019-05-30T13:45:14.401Z,11.40
2019-05-30T13:47:43.128Z,11.30
2019-05-30T13:50:14.327Z,11.40
2019-05-30T13:52:43.285Z,11.40
2019-05-30T13:55:14.001Z,11.40
2019-05-30T13:57:42.792Z,11.40
2019-05-30T14:00:13.422Z,11.40
2019-05-30T14:02:42.149Z,11.30
2019-05-30T14:05:14.121Z,11.30
2019-05-30T14:07:42.857Z,11.30
2019-05-30T14:10:11.878Z,11.20
2019-05-30T14:12:40.740Z,11.30
2019-05-30T14:15:13.994Z,11.30
2019-05-30T14:17:41.881Z,11.30
2019-05-30T14:20:11.929Z,11.40
2019-05-30T14:22:40.721Z,11.30
2019-05-30T14:25:11.582Z,11.40
2019-05-30T14:27:40.611Z,11.30
2019-05-30T14:30:11.117Z,11.40
2019-05-30T14:32:39.860Z,11.40
2019-05-30T14:35:11.809Z,11.40
2019-05-30T14:37:42.346Z,11.30
2019-05-30T14:40:13.084Z,11.40
2019-05-30T14:42:42.170Z,11.30
2019-05-30T14:45:12.915Z,11.30
2019-05-30T14:47:41.643Z,11.30
2019-05-30T14:50:11.804Z,11.10
2019-05-30T14:52:41.747Z,11.10
2019-05-30T14:55:11.182Z,11.20
2019-05-30T14:57:40.063Z,11.20
2019-05-30T15:00:11.381Z,11.20
2019-05-30T15:02:40.498Z,11.10
2019-05-30T15:05:09.695Z,11.00
2019-05-30T15:07:38.652Z,11.10
2019-05-30T15:10:10.525Z,11.10
2019-05-30T15:12:39.587Z,11.10
2019-05-30T15:15:12.589Z,11.00
2019-05-30T15:17:39.330Z,11.00
2019-05-30T15:20:10.251Z,11.00
2019-05-30T15:22:39.642Z,11.00
2019-05-30T15:25:09.930Z,10.90
2019-05-30T15:27:39.064Z,11.00
2019-05-30T15:30:12.617Z,11.00
2019-05-30T15:32:41.708Z,11.00
2019-05-30T15:35:11.005Z,11.00
2019-05-30T15:37:40.938Z,10.90
2019-05-30T15:40:10.998Z,10.90
2019-05-30T15:42:39.808Z,10.90
2019-05-30T15:45:09.993Z,10.90
2019-05-30T15:47:38.993Z,10.80
2019-05-30T15:50:10.513Z,10.90
2019-05-30T15:52:39.589Z,10.90
2019-05-30T15:55:09.297Z,10.90
2019-05-30T15:57:38.194Z,10.80
2019-05-30T16:00:12.105Z,10.80
2019-05-30T16:02:41.807Z,10.70
2019-05-30T16:05:12.351Z,10.70
2019-05-30T16:07:41.316Z,10.70
2019-05-30T16:10:12.812Z,10.60
2019-05-30T16:12:41.854Z,10.70
2019-05-30T16:15:11.872Z,10.60
2019-05-30T16:17:40.820Z,10.60
2019-05-30T16:20:11.646Z,10.50
2019-05-30T16:22:40.956Z,10.40
2019-05-30T16:25:10.052Z,10.40
2019-05-30T16:27:38.808Z,10.40
2019-05-30T16:30:09.278Z,10.40
2019-05-30T16:32:38.383Z,10.40
2019-05-30T16:35:07.805Z,10.40
2019-05-30T16:37:36.509Z,10.50
2019-05-30T16:40:09.429Z,10.40
2019-05-30T16:42:38.179Z,10.30
2019-05-30T16:45:08.746Z,10.30
2019-05-30T16:47:37.688Z,10.30
2019-05-30T16:50:11.183Z,10.30
2019-05-30T16:52:39.930Z,10.30
2019-05-30T16:55:10.453Z,10.50
2019-05-30T16:57:39.214Z,10.40
2019-05-30T17:00:10.786Z,10.40
2019-05-30T17:02:39.527Z,10.40
2019-05-30T17:05:08.787Z,10.40
2019-05-30T17:07:37.583Z,10.40
2019-05-30T17:10:21.484Z,10.40
2019-05-30T17:12:37.823Z,10.50
2019-05-30T17:15:08.060Z,10.60
2019-05-30T17:17:36.804Z,10.50
2019-05-30T17:20:08.350Z,10.50
2019-05-30T17:22:37.089Z,10.60
2019-05-30T17:25:07.385Z,10.60
2019-05-30T17:27:36.153Z,10.60
2019-05-30T17:30:10.807Z,10.60
2019-05-30T17:32:39.632Z,10.60
2019-05-30T17:35:09.221Z,10.70
2019-05-30T17:37:37.966Z,10.60
2019-05-30T17:40:10.599Z,10.50
2019-05-30T17:42:39.320Z,10.50
2019-05-30T17:45:11.715Z,10.50
2019-05-30T17:47:40.481Z,10.50
2019-05-30T17:50:11.680Z,10.40
2019-05-30T17:52:40.514Z,10.40
2019-05-30T17:55:09.994Z,10.50
2019-05-30T17:57:38.837Z,10.50
2019-05-30T18:00:10.380Z,10.60
2019-05-30T18:02:39.331Z,10.50
2019-05-30T18:05:08.387Z,10.50
2019-05-30T18:07:37.126Z,10.60
2019-05-30T18:10:06.980Z,10.50
2019-05-30T18:12:36.270Z,10.40
2019-05-30T18:15:14.270Z,10.50
2019-05-30T18:17:43.010Z,10.50
2019-05-30T18:20:13.560Z,10.40
2019-05-30T18:22:42.397Z,10.40
2019-05-30T18:25:12.109Z,10.30
2019-05-30T18:27:40.853Z,10.40
2019-05-30T18:30:11.507Z,10.40
2019-05-30T18:32:40.246Z,10.40
2019-05-30T18:35:09.287Z,10.40
2019-05-30T18:37:38.650Z,10.40
2019-05-30T18:40:08.302Z,10.50
2019-05-30T18:42:37.648Z,10.50
2019-05-30T18:45:10.927Z,10.50
2019-05-30T18:47:39.673Z,10.50
2019-05-30T18:50:09.501Z,10.50
2019-05-30T18:52:38.239Z,10.50
2019-05-30T18:55:07.984Z,10.50
2019-05-30T18:57:37.346Z,10.50
2019-05-30T19:00:10.238Z,10.50
2019-05-30T19:02:39.869Z,10.50
2019-05-30T19:05:09.600Z,10.40
2019-05-30T19:07:40.338Z,10.40
2019-05-30T19:10:09.151Z,10.50
2019-05-30T19:12:37.898Z,10.60
2019-05-30T19:15:08.718Z,10.60
2019-05-30T19:17:38.265Z,10.50
2019-05-30T19:20:08.056Z,10.50
2019-05-30T19:22:36.867Z,10.50
2019-05-30T19:25:09.106Z,10.50
2019-05-30T19:27:38.590Z,10.50
2019-05-30T19:30:09.407Z,10.50
2019-05-30T19:32:38.279Z,10.40
2019-05-30T19:35:07.926Z,10.40
2019-05-30T19:37:37.574Z,10.50
2019-05-30T19:40:07.379Z,10.50
2019-05-30T19:42:37.450Z,10.50
2019-05-30T19:45:10.011Z,10.40
2019-05-30T19:47:38.971Z,10.40
2019-05-30T19:50:09.088Z,10.50
2019-05-30T19:52:39.099Z,10.50
2019-05-30T19:55:08.324Z,10.50
2019-05-30T19:57:37.824Z,10.50
2019-05-30T20:00:08.828Z,10.40
2019-05-30T20:02:38.314Z,10.40
2019-05-30T20:05:09.248Z,10.40
2019-05-30T20:07:38.898Z,10.40
2019-05-30T20:10:08.215Z,10.50
2019-05-30T20:12:37.203Z,10.50
2019-05-30T20:15:11.043Z,10.40
2019-05-30T20:17:41.823Z,10.30
2019-05-30T20:20:10.682Z,10.40
2019-05-30T20:22:40.207Z,10.40
2019-05-30T20:25:09.711Z,10.40
2019-05-30T20:27:38.978Z,10.40
2019-05-30T20:30:09.317Z,10.30
2019-05-30T20:32:38.832Z,10.30
2019-05-30T20:35:08.147Z,10.30
2019-05-30T20:37:37.047Z,10.20
2019-05-30T20:40:08.532Z,10.10
2019-05-30T20:42:37.287Z,10.20
2019-05-30T20:45:10.079Z,10.20
2019-05-30T20:47:40.449Z,10.20
2019-05-30T20:50:14.109Z,10.30
2019-05-30T20:52:43.615Z,10.30
2019-05-30T20:55:13.242Z,10.30
2019-05-30T20:57:42.578Z,10.30
2019-05-30T21:00:13.212Z,10.30
2019-05-30T21:02:43.690Z,10.30
2019-05-30T21:05:12.370Z,10.30
2019-05-30T21:07:44.279Z,10.10
2019-05-30T21:10:13.895Z,10.10
2019-05-30T21:12:46.970Z,10.10
2019-05-30T21:15:15.108Z,10.20
2019-05-30T21:17:46.124Z,10.20
2019-05-30T21:20:15.460Z,10.20
2019-05-30T21:22:44.636Z,10.20
2019-05-30T21:25:14.016Z,10.20
2019-05-30T21:27:43.074Z,10.20
2019-05-30T21:30:13.229Z,10.10
2019-05-30T21:32:43.624Z,10.10
2019-05-30T21:35:13.149Z,10.10
2019-05-30T21:37:41.998Z,10.10
2019-05-30T21:40:11.034Z,10.00
2019-05-30T21:42:56.779Z,9.90
2019-05-30T21:45:12.327Z,10.00
2019-05-30T21:47:41.114Z,10.00
2019-05-30T21:50:11.610Z,10.10
2019-05-30T21:52:41.520Z,10.10
2019-05-30T21:55:10.372Z,10.00
2019-05-30T21:57:39.816Z,10.00
2019-05-30T22:00:13.428Z,10.00
2019-05-30T22:02:45.138Z,10.00
2019-05-30T22:05:14.267Z,9.90
2019-05-30T22:07:43.088Z,10.00
2019-05-30T22:10:11.959Z,10.00
2019-05-30T22:12:41.457Z,10.00
2019-05-30T22:15:10.358Z,10.00
2019-05-30T22:17:39.169Z,10.00
2019-05-30T22:20:08.846Z,10.00
2019-05-30T22:22:37.579Z,10.00
2019-05-30T22:25:07.475Z,9.90
2019-05-30T22:27:36.231Z,9.90
2019-05-30T22:30:06.454Z,9.90
2019-05-30T22:32:36.720Z,9.90
2019-05-30T22:35:07.049Z,9.90
2019-05-30T22:37:35.860Z,9.90
2019-05-30T22:40:05.996Z,9.90
2019-05-30T22:42:34.760Z,10.00
2019-05-30T22:45:04.195Z,10.00
2019-05-30T22:47:33.033Z,9.90
2019-05-30T22:50:01.785Z,9.90
2019-05-30T22:52:30.505Z,9.90
2019-05-30T22:54:59.308Z,9.90
2019-05-30T22:57:28.071Z,9.90
2019-05-30T22:59:57.141Z,10.00
2019-05-30T23:02:26.005Z,10.00
2019-05-30T23:04:54.739Z,10.00
2019-05-30T23:07:23.543Z,10.00
2019-05-30T23:09:53.846Z,10.00
2019-05-30T23:12:22.811Z,9.90
2019-05-30T23:14:52.262Z,9.90
2019-05-30T23:17:21.097Z,9.90
2019-05-30T23:19:51.295Z,9.80
2019-05-30T23:22:20.287Z,9.80
2019-05-30T23:24:49.248Z,9.80
2019-05-30T23:27:18.084Z,9.80
2019-05-30T23:29:47.660Z,9.80
2019-05-30T23:32:16.470Z,9.80
2019-05-30T23:34:45.193Z,9.80
2019-05-30T23:37:13.928Z,9.80
2019-05-30T23:39:42.682Z,9.80
2019-05-30T23:42:11.413Z,9.80
2019-05-30T23:44:40.158Z,9.80
2019-05-30T23:47:08.999Z,9.70
2019-05-30T23:49:37.883Z,9.70
2019-05-30T23:52:06.618Z,9.70
2019-05-30T23:54:35.427Z,9.80
2019-05-30T23:57:04.263Z,9.80
2019-05-30T23:59:32.985Z,9.80
